createdAt,value
2022-10-21T00:00:55.807Z,20.35
2022-10-21T00:03:25.569Z,19.50
2022-10-21T00:05:54.072Z,21.35
2022-10-21T00:08:22.081Z,19.05
2022-10-21T00:10:57.814Z,19.80
2022-10-21T00:13:26.758Z,20.75
2022-10-21T00:16:04.947Z,18.58
2022-10-21T00:18:34.383Z,20.30
2022-10-21T00:21:06.259Z,17.20
2022-10-21T00:23:33.760Z,20.42
2022-10-21T00:26:01.393Z,17.88
2022-10-21T00:28:30.434Z,20.80
2022-10-21T00:30:58.581Z,24.13
2022-10-21T00:33:28.113Z,20.48
2022-10-21T00:36:02.563Z,17.27
2022-10-21T00:38:31.298Z,18.45
2022-10-21T00:40:59.342Z,19.77
2022-10-21T00:43:27.899Z,17.77
2022-10-21T00:46:03.501Z,18.92
2022-10-21T00:48:39.580Z,20.65
2022-10-21T00:51:11.895Z,21.67
2022-10-21T00:56:15.401Z,21.60
2022-10-21T00:58:45.986Z,16.65
2022-10-21T01:01:17.812Z,17.95
2022-10-21T01:03:49.796Z,18.20
2022-10-21T01:06:20.710Z,22.83
2022-10-21T01:08:48.751Z,16.30
2022-10-21T01:11:19.286Z,19.23
2022-10-21T01:14:05.523Z,15.93
2022-10-21T01:16:48.295Z,17.08
2022-10-21T01:20:02.002Z,17.35
2022-10-21T01:23:02.971Z,22.92
2022-10-21T01:26:07.988Z,25.80
2022-10-21T01:29:03.109Z,21.73
2022-10-21T01:31:52.180Z,19.13
2022-10-21T01:34:19.562Z,24.98
2022-10-21T01:36:53.981Z,19.85
2022-10-21T01:39:37.189Z,22.25
2022-10-21T01:42:18.423Z,24.27
2022-10-21T01:45:10.024Z,23.58
2022-10-21T01:47:43.124Z,28.67
2022-10-21T01:50:13.603Z,24.67
2022-10-21T01:52:42.812Z,21.23
2022-10-21T01:55:14.488Z,22.90
2022-10-21T01:57:49.304Z,22.88
2022-10-21T02:00:17.067Z,20.70
2022-10-21T02:02:48.560Z,24.30
2022-10-21T02:05:30.233Z,19.33
2022-10-21T02:07:57.997Z,20.25
2022-10-21T02:10:33.517Z,17.65
2022-10-21T02:13:04.076Z,21.77
2022-10-21T02:15:34.237Z,27.25
2022-10-21T02:18:10.489Z,24.00
2022-10-21T02:20:42.494Z,22.42
2022-10-21T02:23:15.189Z,23.20
2022-10-21T02:25:46.264Z,19.52
2022-10-21T02:28:14.528Z,22.90
2022-10-21T02:31:19.830Z,21.60
2022-10-21T02:33:59.290Z,20.10
2022-10-21T02:36:49.318Z,22.48
2022-10-21T02:39:27.687Z,21.00
2022-10-21T02:41:57.993Z,24.33
2022-10-21T02:44:25.988Z,19.67
2022-10-21T02:46:53.470Z,21.85
2022-10-21T02:49:20.852Z,22.60
2022-10-21T02:51:48.206Z,23.45
2022-10-21T02:54:15.657Z,21.60
2022-10-21T02:56:43.145Z,26.45
2022-10-21T02:59:10.660Z,24.63
2022-10-21T03:01:38.142Z,23.42
2022-10-21T03:04:05.641Z,21.20
2022-10-21T03:06:33.062Z,21.58
2022-10-21T03:09:00.545Z,20.63
2022-10-21T03:11:28.157Z,21.08
2022-10-21T03:13:55.657Z,22.98
2022-10-21T03:16:23.154Z,21.00
2022-10-21T03:18:50.593Z,21.90
2022-10-21T03:21:17.990Z,22.05
2022-10-21T03:23:45.416Z,22.83
2022-10-21T03:26:12.884Z,20.27
2022-10-21T03:28:40.337Z,22.15
2022-10-21T03:31:07.809Z,23.65
2022-10-21T03:33:35.240Z,22.08
2022-10-21T03:36:02.649Z,23.17
2022-10-21T03:38:30.114Z,25.23
2022-10-21T03:40:57.510Z,23.70
2022-10-21T03:43:24.971Z,26.17
2022-10-21T03:45:52.421Z,24.17
2022-10-21T03:48:19.802Z,25.73
2022-10-21T03:50:47.694Z,25.83
2022-10-21T03:53:30.930Z,22.83
2022-10-21T03:56:02.505Z,20.90
2022-10-21T03:58:29.988Z,26.10
2022-10-21T04:00:57.331Z,32.75
2022-10-21T04:03:24.781Z,30.23
2022-10-21T04:05:52.173Z,27.33
2022-10-21T04:08:19.546Z,29.67
2022-10-21T04:10:48.031Z,29.25
2022-10-21T04:13:15.537Z,27.48
2022-10-21T04:15:43.051Z,26.45
2022-10-21T04:18:10.393Z,25.58
2022-10-21T04:20:37.768Z,23.58
2022-10-21T04:23:05.162Z,27.38
2022-10-21T04:25:32.778Z,25.05
2022-10-21T04:28:00.265Z,25.70
2022-10-21T04:30:27.637Z,21.55
2022-10-21T04:32:55.180Z,28.67
2022-10-21T04:35:22.579Z,27.23
2022-10-21T04:37:50.010Z,23.92
2022-10-21T04:40:17.499Z,24.00
2022-10-21T04:42:49.179Z,29.92
2022-10-21T04:45:19.284Z,30.42
2022-10-21T04:47:46.686Z,25.50
2022-10-21T04:50:14.087Z,35.20
2022-10-21T04:52:41.697Z,32.72
2022-10-21T04:55:09.673Z,34.33
2022-10-21T04:57:37.322Z,28.70
2022-10-21T05:00:05.983Z,31.58
2022-10-21T05:02:33.813Z,30.05
2022-10-21T05:05:01.323Z,30.42
2022-10-21T05:07:28.729Z,25.40
2022-10-21T05:09:56.167Z,28.35
2022-10-21T05:12:23.658Z,29.83
2022-10-21T05:14:51.141Z,28.55
2022-10-21T05:17:18.534Z,30.85
2022-10-21T05:19:46.143Z,36.90
2022-10-21T05:22:13.575Z,27.48
2022-10-21T05:24:41.037Z,30.48
2022-10-21T05:27:08.513Z,40.25
2022-10-21T05:29:35.944Z,37.85
2022-10-21T05:32:03.504Z,42.40
2022-10-21T05:34:30.949Z,30.80
2022-10-21T05:36:58.600Z,31.17
2022-10-21T05:39:26.152Z,27.88
2022-10-21T05:41:53.553Z,27.33
2022-10-21T05:44:21.057Z,41.58
2022-10-21T05:46:48.467Z,41.55
2022-10-21T05:49:15.871Z,35.55
2022-10-21T05:51:44.911Z,31.55
2022-10-21T05:54:12.303Z,37.03
2022-10-21T05:56:39.787Z,31.48
2022-10-21T05:59:10.037Z,39.33
2022-10-21T06:01:39.560Z,41.95
2022-10-21T06:04:07.538Z,33.75
2022-10-21T06:06:34.984Z,48.95
2022-10-21T06:09:02.514Z,39.83
2022-10-21T06:11:30.057Z,41.88
2022-10-21T06:13:57.472Z,46.35
2022-10-21T06:16:24.959Z,37.42
2022-10-21T06:18:52.425Z,38.10
2022-10-21T06:21:19.820Z,40.83
2022-10-21T06:23:47.288Z,30.63
2022-10-21T06:26:16.330Z,40.55
2022-10-21T06:28:45.075Z,26.35
2022-10-21T06:31:19.018Z,29.05
2022-10-21T06:33:46.536Z,25.27
2022-10-21T06:36:14.027Z,27.95
2022-10-21T06:38:42.129Z,33.40
2022-10-21T06:41:13.655Z,32.28
2022-10-21T06:43:42.534Z,30.83
2022-10-21T06:46:13.858Z,31.88
2022-10-21T06:48:41.851Z,29.30
2022-10-21T06:51:21.463Z,29.10
2022-10-21T06:53:53.366Z,29.60
2022-10-21T06:56:21.951Z,34.88
2022-10-21T06:58:50.787Z,32.75
2022-10-21T07:01:34.871Z,36.28
2022-10-21T07:04:09.938Z,38.08
2022-10-21T07:06:37.604Z,32.88
2022-10-21T07:09:07.005Z,40.17
2022-10-21T07:11:34.611Z,39.63
2022-10-21T07:14:02.208Z,32.25
2022-10-21T07:16:32.933Z,38.78
2022-10-21T07:19:00.448Z,45.83
2022-10-21T07:21:29.865Z,45.10
2022-10-21T07:23:59.667Z,39.05
2022-10-21T07:26:30.088Z,34.33
2022-10-21T07:28:59.853Z,36.92
2022-10-21T07:31:28.637Z,40.08
2022-10-21T07:33:56.579Z,35.78
2022-10-21T07:36:26.745Z,40.30
2022-10-21T07:38:55.963Z,37.33
2022-10-21T07:41:30.861Z,47.28
2022-10-21T07:43:58.763Z,41.38
2022-10-21T07:46:26.583Z,37.90
2022-10-21T07:48:54.148Z,40.17
2022-10-21T07:51:28.452Z,55.15
2022-10-21T07:54:00.498Z,42.47
2022-10-21T07:56:31.239Z,43.03
2022-10-21T07:58:59.790Z,57.30
2022-10-21T08:01:27.930Z,48.45
2022-10-21T08:03:56.215Z,45.13
2022-10-21T08:06:25.674Z,44.65
2022-10-21T08:08:53.497Z,57.33
2022-10-21T08:11:24.080Z,57.00
2022-10-21T08:13:51.924Z,47.90
2022-10-21T08:16:19.438Z,53.90
2022-10-21T08:18:47.432Z,43.53
2022-10-21T08:21:15.219Z,40.30
2022-10-21T08:23:42.691Z,46.38
2022-10-21T08:26:15.712Z,44.35
2022-10-21T08:28:43.668Z,44.75
2022-10-21T08:31:14.288Z,44.20
2022-10-21T08:33:42.497Z,41.60
2022-10-21T08:36:14.793Z,50.45
2022-10-21T08:38:42.289Z,42.30
2022-10-21T08:41:35.881Z,73.88
2022-10-21T08:44:14.097Z,52.17
2022-10-21T08:46:47.441Z,51.15
2022-10-21T08:49:30.029Z,45.10
2022-10-21T08:52:12.749Z,41.50
2022-10-21T08:55:01.549Z,38.63
2022-10-21T08:57:31.351Z,43.83
2022-10-21T08:59:58.808Z,42.33
2022-10-21T09:02:52.311Z,42.60
2022-10-21T09:05:36.807Z,35.25
2022-10-21T09:08:36.365Z,37.33
2022-10-21T09:11:19.911Z,41.72
2022-10-21T09:14:20.514Z,34.38
2022-10-21T09:17:11.769Z,35.35
2022-10-21T09:19:56.584Z,30.98
2022-10-21T09:22:50.325Z,36.90
2022-10-21T09:25:39.901Z,38.05
2022-10-21T09:28:13.855Z,34.92
2022-10-21T09:30:42.647Z,34.25
2022-10-21T09:33:34.684Z,32.75
2022-10-21T09:36:24.691Z,28.38
2022-10-21T09:39:02.303Z,24.60
2022-10-21T09:41:39.897Z,28.42
2022-10-21T09:44:11.034Z,21.77
2022-10-21T09:46:38.494Z,23.85
2022-10-21T09:51:53.858Z,27.50
2022-10-21T09:54:24.819Z,24.60
2022-10-21T09:57:04.292Z,22.88
2022-10-21T09:59:33.597Z,21.30
2022-10-21T10:02:14.817Z,20.67
2022-10-21T10:04:42.321Z,18.33
2022-10-21T10:07:39.147Z,28.25
2022-10-21T10:10:30.805Z,19.48
2022-10-21T10:12:59.556Z,19.95
2022-10-21T10:15:35.684Z,21.40
2022-10-21T10:18:04.589Z,17.88
2022-10-21T10:20:32.039Z,24.55
2022-10-21T10:22:59.488Z,20.23
2022-10-21T10:25:35.272Z,19.73
2022-10-21T10:28:15.909Z,19.67
2022-10-21T10:30:43.336Z,20.17
2022-10-21T10:33:13.842Z,19.55
2022-10-21T10:35:49.255Z,17.67
2022-10-21T10:38:27.450Z,18.38
2022-10-21T10:41:02.507Z,20.05
2022-10-21T10:43:33.515Z,17.75
2022-10-21T10:46:03.947Z,19.52
2022-10-21T10:48:36.670Z,18.13
2022-10-21T10:51:24.357Z,19.08
2022-10-21T10:54:06.686Z,20.67
2022-10-21T10:56:47.714Z,21.38
2022-10-21T10:59:24.011Z,19.08
2022-10-21T11:02:00.264Z,17.67
2022-10-21T11:05:17.327Z,24.67
2022-10-21T11:07:54.028Z,16.70
2022-10-21T11:10:38.953Z,18.70
2022-10-21T11:13:12.820Z,27.30
2022-10-21T11:15:58.259Z,18.80
2022-10-21T11:18:34.665Z,17.75
2022-10-21T11:21:07.938Z,20.13
2022-10-21T11:23:56.999Z,18.55
2022-10-21T11:26:34.660Z,21.80
2022-10-21T11:29:05.377Z,21.30
2022-10-21T11:32:11.136Z,22.95
2022-10-21T11:34:52.148Z,21.38
2022-10-21T11:37:22.512Z,19.85
2022-10-21T11:40:13.926Z,20.58
2022-10-21T11:42:48.466Z,19.20
2022-10-21T11:45:40.033Z,20.73
2022-10-21T11:48:20.242Z,20.67
2022-10-21T11:51:06.246Z,21.67
2022-10-21T11:53:57.144Z,19.42
2022-10-21T11:56:33.551Z,19.52
2022-10-21T11:59:19.483Z,21.67
2022-10-21T12:02:04.958Z,22.45
2022-10-21T12:04:47.661Z,21.20
2022-10-21T12:07:36.516Z,29.33
2022-10-21T12:10:27.266Z,20.60
2022-10-21T12:12:59.107Z,25.40
2022-10-21T12:15:41.182Z,20.25
2022-10-21T12:18:16.544Z,18.92
2022-10-21T12:20:47.753Z,19.17
2022-10-21T12:23:22.148Z,16.70
2022-10-21T12:25:57.287Z,23.10
2022-10-21T12:28:30.132Z,22.80
2022-10-21T12:31:09.806Z,26.38
2022-10-21T12:33:49.211Z,26.83
2022-10-21T12:36:28.426Z,35.35
2022-10-21T12:38:58.792Z,23.58
2022-10-21T12:41:36.397Z,27.75
2022-10-21T12:44:06.512Z,22.73
2022-10-21T12:46:40.421Z,21.50
2022-10-21T12:49:10.763Z,23.73
2022-10-21T12:51:39.241Z,21.90
2022-10-21T12:54:12.868Z,23.58
2022-10-21T12:56:46.806Z,23.85
2022-10-21T12:59:32.123Z,23.48
2022-10-21T13:02:05.740Z,19.38
2022-10-21T13:04:33.258Z,26.85
2022-10-21T13:07:17.159Z,23.42
2022-10-21T13:10:09.902Z,24.30
2022-10-21T13:12:37.735Z,24.80
2022-10-21T13:15:20.474Z,20.05
2022-10-21T13:17:54.637Z,22.15
2022-10-21T13:20:22.112Z,26.50
2022-10-21T13:23:01.765Z,26.10
2022-10-21T13:25:35.303Z,21.63
2022-10-21T13:28:15.038Z,23.33
2022-10-21T13:30:48.659Z,22.33
2022-10-21T13:33:20.537Z,18.65
2022-10-21T13:35:52.440Z,24.15
2022-10-21T13:38:29.379Z,20.02
2022-10-21T13:41:06.243Z,19.45
2022-10-21T13:43:51.479Z,23.17
2022-10-21T13:46:31.413Z,18.80
2022-10-21T13:49:00.714Z,21.73
2022-10-21T13:51:31.681Z,25.33
2022-10-21T13:54:16.151Z,19.70
2022-10-21T13:56:43.948Z,24.98
2022-10-21T13:59:29.967Z,23.77
2022-10-21T14:01:58.232Z,18.02
2022-10-21T14:04:28.353Z,25.02
2022-10-21T14:07:01.303Z,19.35
2022-10-21T14:09:34.648Z,25.45
2022-10-21T14:12:05.304Z,22.02
2022-10-21T14:14:34.870Z,25.60
2022-10-21T14:17:08.010Z,21.83
2022-10-21T14:19:38.678Z,19.50
2022-10-21T14:22:09.931Z,23.52
2022-10-21T14:24:51.332Z,19.90
2022-10-21T14:27:30.029Z,19.90
2022-10-21T14:30:01.018Z,18.27
2022-10-21T14:32:29.093Z,20.35
2022-10-21T14:35:05.970Z,19.88
2022-10-21T14:37:47.765Z,18.40
2022-10-21T14:40:33.421Z,21.08
2022-10-21T14:43:16.759Z,19.58
2022-10-21T14:45:50.248Z,20.67
2022-10-21T14:48:28.378Z,17.92
2022-10-21T14:51:00.817Z,29.55
2022-10-21T14:53:36.002Z,25.35
2022-10-21T14:56:06.797Z,21.38
2022-10-21T14:58:38.355Z,21.15
2022-10-21T15:01:18.127Z,22.08
2022-10-21T15:03:49.098Z,25.80
2022-10-21T15:06:28.794Z,19.67
2022-10-21T15:08:56.469Z,19.63
2022-10-21T15:11:29.781Z,23.70
2022-10-21T15:14:18.018Z,21.25
2022-10-21T15:16:53.308Z,17.98
2022-10-21T15:19:38.080Z,28.38
2022-10-21T15:22:06.211Z,21.40
2022-10-21T15:24:40.296Z,17.10
2022-10-21T15:27:14.435Z,17.95
2022-10-21T15:29:47.035Z,17.05
2022-10-21T15:32:19.109Z,23.70
2022-10-21T15:34:49.640Z,24.25
2022-10-21T15:37:17.153Z,22.17
2022-10-21T15:39:45.505Z,25.63
2022-10-21T15:42:22.865Z,18.67
2022-10-21T15:44:50.971Z,18.75
2022-10-21T15:47:18.598Z,25.38
2022-10-21T15:49:46.723Z,21.27
2022-10-21T15:52:14.567Z,21.80
2022-10-21T15:54:42.907Z,20.27
2022-10-21T15:57:19.142Z,28.38
2022-10-21T15:59:47.245Z,20.70
2022-10-21T16:02:17.338Z,29.42
2022-10-21T16:04:45.817Z,19.67
2022-10-21T16:07:35.940Z,19.30
2022-10-21T16:10:18.846Z,20.98
2022-10-21T16:12:46.487Z,20.90
2022-10-21T16:15:14.860Z,21.33
2022-10-21T16:17:45.050Z,20.58
2022-10-21T16:20:19.148Z,20.77
2022-10-21T16:22:46.833Z,22.92
2022-10-21T16:25:14.964Z,19.73
2022-10-21T16:27:55.201Z,25.42
2022-10-21T16:30:24.780Z,24.83
2022-10-21T16:32:52.632Z,21.42
2022-10-21T16:35:21.077Z,20.13
2022-10-21T16:37:48.769Z,19.33
2022-10-21T16:40:25.993Z,24.10
2022-10-21T16:42:53.932Z,25.58
2022-10-21T16:45:23.902Z,23.13
2022-10-21T16:47:53.892Z,24.20
2022-10-21T16:50:36.939Z,26.83
2022-10-21T16:53:05.346Z,18.27
2022-10-21T16:55:32.926Z,21.98
2022-10-21T16:58:00.764Z,35.50
2022-10-21T17:00:28.493Z,27.15
2022-10-21T17:02:57.239Z,24.05
2022-10-21T17:05:25.294Z,23.27
2022-10-21T17:07:53.647Z,33.97
2022-10-21T17:10:21.150Z,39.40
2022-10-21T17:12:49.177Z,22.95
2022-10-21T17:15:16.821Z,28.10
2022-10-21T17:17:44.322Z,35.08
2022-10-21T17:20:11.856Z,15.57
2022-10-21T17:22:39.287Z,18.02
2022-10-21T17:25:06.983Z,19.35
2022-10-21T17:27:34.501Z,18.05
2022-10-21T17:30:02.119Z,16.50
2022-10-21T17:32:29.674Z,19.48
2022-10-21T17:34:58.399Z,17.00
2022-10-21T17:37:25.815Z,27.98
2022-10-21T17:39:53.202Z,22.95
2022-10-21T17:42:20.880Z,16.52
2022-10-21T17:44:49.261Z,20.90
2022-10-21T17:47:17.071Z,19.50
2022-10-21T17:49:44.503Z,22.10
2022-10-21T17:52:12.022Z,19.25
2022-10-21T17:54:39.451Z,15.80
2022-10-21T17:57:06.830Z,24.00
2022-10-21T17:59:34.403Z,16.52
2022-10-21T18:02:01.853Z,12.73
2022-10-21T18:04:31.653Z,15.75
2022-10-21T18:06:59.401Z,14.82
2022-10-21T18:09:26.895Z,11.73
2022-10-21T18:11:54.354Z,15.05
2022-10-21T18:14:22.059Z,18.38
2022-10-21T18:16:49.536Z,17.25
2022-10-21T18:19:17.563Z,13.27
2022-10-21T18:21:45.398Z,14.95
2022-10-21T18:24:12.953Z,17.58
2022-10-21T18:26:40.409Z,12.60
2022-10-21T18:29:07.903Z,13.90
2022-10-21T18:31:37.506Z,18.35
2022-10-21T18:34:06.785Z,13.75
2022-10-21T18:36:34.247Z,15.20
2022-10-21T18:39:01.798Z,16.42
2022-10-21T18:41:29.204Z,17.20
2022-10-21T18:44:01.426Z,16.95
2022-10-21T18:46:29.814Z,14.65
2022-10-21T18:48:57.955Z,14.52
2022-10-21T18:51:25.477Z,13.13
2022-10-21T18:53:53.554Z,15.85
2022-10-21T18:56:23.721Z,12.80
2022-10-21T18:58:51.709Z,15.30
2022-10-21T19:01:20.712Z,17.00
2022-10-21T19:03:50.815Z,11.45
2022-10-21T19:06:37.106Z,11.40
2022-10-21T19:09:08.347Z,16.15
2022-10-21T19:11:36.008Z,15.15
2022-10-21T19:14:03.519Z,13.40
2022-10-21T19:16:31.052Z,14.02
2022-10-21T19:18:58.634Z,12.60
2022-10-21T19:21:26.525Z,17.35
2022-10-21T19:23:54.411Z,17.42
2022-10-21T19:26:23.197Z,16.20
2022-10-21T19:28:50.869Z,19.63
2022-10-21T19:31:21.160Z,16.30
2022-10-21T19:33:48.666Z,16.63
2022-10-21T19:36:16.087Z,18.25
2022-10-21T19:38:44.664Z,14.27
2022-10-21T19:41:15.978Z,15.85
2022-10-21T19:43:43.790Z,18.45
2022-10-21T19:46:21.160Z,14.90
2022-10-21T19:48:51.069Z,14.30
2022-10-21T19:51:21.517Z,17.40
2022-10-21T19:53:50.154Z,17.13
2022-10-21T19:56:22.188Z,15.50
2022-10-21T19:58:53.306Z,18.40
2022-10-21T20:01:26.227Z,16.95
2022-10-21T20:03:54.533Z,17.92
2022-10-21T20:06:25.036Z,20.98
2022-10-21T20:08:58.493Z,21.13
2022-10-21T20:11:27.319Z,16.75
2022-10-21T20:13:55.314Z,16.67
2022-10-21T20:16:28.616Z,19.42
2022-10-21T20:18:56.982Z,18.35
2022-10-21T20:21:25.100Z,19.80
2022-10-21T20:23:53.290Z,32.85
2022-10-21T20:26:20.723Z,21.10
2022-10-21T20:28:48.141Z,20.27
2022-10-21T20:31:16.641Z,19.77
2022-10-21T20:33:48.903Z,19.60
2022-10-21T20:38:47.591Z,19.73
2022-10-21T20:41:21.639Z,16.73
2022-10-21T20:43:50.755Z,20.15
2022-10-21T20:46:20.465Z,16.10
2022-10-21T20:48:50.911Z,17.08
2022-10-21T20:51:27.212Z,14.43
2022-10-21T20:53:57.565Z,17.25
2022-10-21T20:56:30.863Z,18.50
2022-10-21T20:58:59.550Z,20.10
2022-10-21T21:01:31.308Z,15.10
2022-10-21T21:04:01.959Z,15.30
2022-10-21T21:06:29.650Z,15.18
2022-10-21T21:11:44.787Z,16.65
2022-10-21T21:14:12.540Z,14.90
2022-10-21T21:16:40.257Z,16.40
2022-10-21T21:19:10.765Z,18.58
2022-10-21T21:21:38.328Z,29.40
2022-10-21T21:24:05.984Z,14.38
2022-10-21T21:26:36.330Z,21.92
2022-10-21T21:29:08.620Z,17.13
2022-10-21T21:34:05.268Z,39.90
2022-10-21T21:36:32.721Z,21.95
2022-10-21T21:39:00.289Z,15.32
2022-10-21T21:41:27.811Z,14.23
2022-10-21T21:43:56.742Z,15.63
2022-10-21T21:46:25.234Z,13.68
2022-10-21T21:48:55.902Z,14.82
2022-10-21T21:51:26.866Z,16.95
2022-10-21T21:53:55.166Z,18.13
2022-10-21T21:56:23.867Z,15.40
2022-10-21T21:58:54.668Z,15.95
2022-10-21T22:01:25.403Z,15.35
2022-10-21T22:03:53.407Z,16.85
2022-10-21T22:06:22.946Z,14.93
2022-10-21T22:08:51.085Z,25.80
2022-10-21T22:11:21.447Z,25.80
2022-10-21T22:13:49.000Z,23.73
2022-10-21T22:16:16.908Z,19.75
2022-10-21T22:18:44.378Z,17.83
2022-10-21T22:21:15.132Z,18.05
2022-10-21T22:23:42.732Z,15.23
2022-10-21T22:26:11.971Z,17.55
2022-10-21T22:28:39.804Z,14.93
2022-10-21T22:31:10.939Z,16.10
2022-10-21T22:33:39.310Z,15.32
2022-10-21T22:36:07.548Z,16.52
2022-10-21T22:38:35.096Z,15.75
2022-10-21T22:41:07.182Z,17.75
2022-10-21T22:43:37.237Z,14.27
2022-10-21T22:46:21.160Z,13.75
2022-10-21T22:48:52.215Z,16.70
2022-10-21T22:51:19.626Z,15.75
2022-10-21T22:53:51.918Z,16.35
2022-10-21T22:56:22.993Z,19.45
2022-10-21T22:58:50.427Z,17.58
2022-10-21T23:01:17.931Z,20.52
2022-10-21T23:03:45.422Z,20.45
2022-10-21T23:06:12.827Z,24.45
2022-10-21T23:08:40.345Z,21.33
2022-10-21T23:11:07.829Z,17.00
2022-10-21T23:13:35.227Z,20.50
2022-10-21T23:16:02.605Z,20.98
2022-10-21T23:18:30.042Z,18.70
2022-10-21T23:20:57.493Z,19.42
2022-10-21T23:23:24.893Z,18.25
2022-10-21T23:25:52.285Z,23.35
2022-10-21T23:28:19.750Z,18.50
2022-10-21T23:30:48.107Z,18.20
2022-10-21T23:33:15.781Z,19.42
2022-10-21T23:35:43.136Z,20.35
2022-10-21T23:38:10.567Z,18.10
2022-10-21T23:40:38.040Z,17.90
2022-10-21T23:43:05.529Z,21.60
2022-10-21T23:45:33.188Z,16.70
2022-10-21T23:48:00.706Z,17.85
2022-10-21T23:50:28.447Z,15.23
2022-10-21T23:52:55.803Z,23.25
2022-10-21T23:55:23.376Z,18.42
2022-10-21T23:57:50.785Z,19.10
